sensor_id;sensor_type;location;lat;lon;timestamp;temperature;humidity
12413;DHT22;13877;18.896;-99.222;2022-11-11T00:00:02;23.20;62.20
12413;DHT22;13877;18.896;-99.222;2022-11-11T00:02:48;23.10;62.30
12413;DHT22;13877;18.896;-99.222;2022-11-11T00:05:33;23.00;62.00
12413;DHT22;13877;18.896;-99.222;2022-11-11T00:08:19;23.00;62.00
12413;DHT22;13877;18.896;-99.222;2022-11-11T00:11:10;22.90;62.40
12413;DHT22;13877;18.896;-99.222;2022-11-11T00:13:56;22.80;62.50
12413;DHT22;13877;18.896;-99.222;2022-11-11T00:16:42;22.60;63.40
12413;DHT22;13877;18.896;-99.222;2022-11-11T00:19:45;22.50;63.60
12413;DHT22;13877;18.896;-99.222;2022-11-11T00:22:50;22.20;64.80
12413;DHT22;13877;18.896;-99.222;2022-11-11T00:25:53;22.10;65.30
12413;DHT22;13877;18.896;-99.222;2022-11-11T00:28:40;22.00;65.80
12413;DHT22;13877;18.896;-99.222;2022-11-11T00:31:25;21.80;67.20
12413;DHT22;13877;18.896;-99.222;2022-11-11T00:34:10;21.70;67.30
12413;DHT22;13877;18.896;-99.222;2022-11-11T00:36:56;21.60;67.90
12413;DHT22;13877;18.896;-99.222;2022-11-11T00:39:42;21.50;68.50
12413;DHT22;13877;18.896;-99.222;2022-11-11T00:42:29;21.50;68.70
12413;DHT22;13877;18.896;-99.222;2022-11-11T00:45:15;21.70;67.30
12413;DHT22;13877;18.896;-99.222;2022-11-11T00:48:00;21.90;67.90
12413;DHT22;13877;18.896;-99.222;2022-11-11T00:51:04;21.90;68.60
12413;DHT22;13877;18.896;-99.222;2022-11-11T00:53:50;21.90;69.30
12413;DHT22;13877;18.896;-99.222;2022-11-11T00:56:35;21.80;70.70
12413;DHT22;13877;18.896;-99.222;2022-11-11T00:59:20;21.90;71.70
12413;DHT22;13877;18.896;-99.222;2022-11-11T01:02:05;21.80;72.60
12413;DHT22;13877;18.896;-99.222;2022-11-11T01:04:50;21.80;73.00
12413;DHT22;13877;18.896;-99.222;2022-11-11T01:07:36;21.70;73.30
12413;DHT22;13877;18.896;-99.222;2022-11-11T01:10:21;21.80;73.50
12413;DHT22;13877;18.896;-99.222;2022-11-11T01:13:25;21.70;73.80
12413;DHT22;13877;18.896;-99.222;2022-11-11T01:16:14;21.60;74.40
12413;DHT22;13877;18.896;-99.222;2022-11-11T01:18:59;21.60;74.30
12413;DHT22;13877;18.896;-99.222;2022-11-11T01:21:45;21.60;74.40
12413;DHT22;13877;18.896;-99.222;2022-11-11T01:24:30;21.60;74.60
12413;DHT22;13877;18.896;-99.222;2022-11-11T01:27:16;21.60;74.70
12413;DHT22;13877;18.896;-99.222;2022-11-11T01:30:01;21.50;74.80
12413;DHT22;13877;18.896;-99.222;2022-11-11T01:32:46;21.40;75.00
12413;DHT22;13877;18.896;-99.222;2022-11-11T01:35:32;21.20;75.40
12413;DHT22;13877;18.896;-99.222;2022-11-11T01:38:21;21.20;75.80
12413;DHT22;13877;18.896;-99.222;2022-11-11T01:41:07;21.20;75.90
12413;DHT22;13877;18.896;-99.222;2022-11-11T01:47:03;21.20;75.40
12413;DHT22;13877;18.896;-99.222;2022-11-11T01:49:55;21.20;75.10
12413;DHT22;13877;18.896;-99.222;2022-11-11T01:52:42;21.30;75.00
12413;DHT22;13877;18.896;-99.222;2022-11-11T01:55:29;21.30;75.20
12413;DHT22;13877;18.896;-99.222;2022-11-11T01:58:15;21.30;75.40
12413;DHT22;13877;18.896;-99.222;2022-11-11T02:01:03;21.20;75.50
12413;DHT22;13877;18.896;-99.222;2022-11-11T02:03:50;21.30;75.50
12413;DHT22;13877;18.896;-99.222;2022-11-11T02:07:01;21.20;75.90
12413;DHT22;13877;18.896;-99.222;2022-11-11T02:09:48;21.20;76.10
12413;DHT22;13877;18.896;-99.222;2022-11-11T02:12:35;21.10;75.90
12413;DHT22;13877;18.896;-99.222;2022-11-11T02:15:39;21.00;76.10
12413;DHT22;13877;18.896;-99.222;2022-11-11T02:18:25;21.00;76.10
12413;DHT22;13877;18.896;-99.222;2022-11-11T02:21:16;21.00;74.70
12413;DHT22;13877;18.896;-99.222;2022-11-11T02:24:11;21.10;74.70
12413;DHT22;13877;18.896;-99.222;2022-11-11T02:26:57;21.10;74.50
12413;DHT22;13877;18.896;-99.222;2022-11-11T02:29:46;21.00;74.90
12413;DHT22;13877;18.896;-99.222;2022-11-11T02:32:32;20.90;74.70
12413;DHT22;13877;18.896;-99.222;2022-11-11T02:35:36;20.90;74.50
12413;DHT22;13877;18.896;-99.222;2022-11-11T02:38:23;20.90;73.80
12413;DHT22;13877;18.896;-99.222;2022-11-11T02:41:09;20.90;73.20
12413;DHT22;13877;18.896;-99.222;2022-11-11T02:44:13;20.90;73.20
12413;DHT22;13877;18.896;-99.222;2022-11-11T02:46:59;20.90;73.00
12413;DHT22;13877;18.896;-99.222;2022-11-11T02:49:44;20.80;73.10
12413;DHT22;13877;18.896;-99.222;2022-11-11T02:52:29;20.70;73.10
12413;DHT22;13877;18.896;-99.222;2022-11-11T02:55:14;20.70;72.00
12413;DHT22;13877;18.896;-99.222;2022-11-11T02:58:00;20.80;70.70
12413;DHT22;13877;18.896;-99.222;2022-11-11T03:00:45;20.90;69.80
12413;DHT22;13877;18.896;-99.222;2022-11-11T03:03:31;20.80;70.10
12413;DHT22;13877;18.896;-99.222;2022-11-11T03:06:17;20.80;68.50
12413;DHT22;13877;18.896;-99.222;2022-11-11T03:09:02;20.80;68.50
12413;DHT22;13877;18.896;-99.222;2022-11-11T03:11:47;20.70;68.60
12413;DHT22;13877;18.896;-99.222;2022-11-11T03:14:33;20.70;68.20
12413;DHT22;13877;18.896;-99.222;2022-11-11T03:17:18;20.70;68.00
12413;DHT22;13877;18.896;-99.222;2022-11-11T03:20:23;20.60;68.30
12413;DHT22;13877;18.896;-99.222;2022-11-11T03:23:26;20.60;68.40
12413;DHT22;13877;18.896;-99.222;2022-11-11T03:26:12;20.50;67.40
12413;DHT22;13877;18.896;-99.222;2022-11-11T03:28:59;20.50;67.20
12413;DHT22;13877;18.896;-99.222;2022-11-11T03:31:44;20.50;66.80
12413;DHT22;13877;18.896;-99.222;2022-11-11T03:34:30;20.50;65.80
12413;DHT22;13877;18.896;-99.222;2022-11-11T03:37:15;20.50;65.50
12413;DHT22;13877;18.896;-99.222;2022-11-11T03:40:19;20.50;64.80
12413;DHT22;13877;18.896;-99.222;2022-11-11T03:43:05;20.40;64.40
12413;DHT22;13877;18.896;-99.222;2022-11-11T03:45:55;20.50;64.40
12413;DHT22;13877;18.896;-99.222;2022-11-11T03:48:41;20.50;63.60
12413;DHT22;13877;18.896;-99.222;2022-11-11T03:51:26;20.40;63.00
12413;DHT22;13877;18.896;-99.222;2022-11-11T03:54:11;20.40;62.00
12413;DHT22;13877;18.896;-99.222;2022-11-11T03:56:59;20.40;62.10
12413;DHT22;13877;18.896;-99.222;2022-11-11T04:00:04;20.30;60.70
12413;DHT22;13877;18.896;-99.222;2022-11-11T04:02:50;20.30;60.60
12413;DHT22;13877;18.896;-99.222;2022-11-11T04:05:55;20.20;58.00
12413;DHT22;13877;18.896;-99.222;2022-11-11T04:08:59;20.20;58.10
12413;DHT22;13877;18.896;-99.222;2022-11-11T04:12:03;20.30;56.30
12413;DHT22;13877;18.896;-99.222;2022-11-11T04:14:48;20.30;56.00
12413;DHT22;13877;18.896;-99.222;2022-11-11T04:17:52;20.20;56.40
12413;DHT22;13877;18.896;-99.222;2022-11-11T04:20:38;20.20;55.90
12413;DHT22;13877;18.896;-99.222;2022-11-11T04:23:41;20.10;55.40
12413;DHT22;13877;18.896;-99.222;2022-11-11T04:26:27;20.10;54.60
12413;DHT22;13877;18.896;-99.222;2022-11-11T04:29:13;20.10;54.20
12413;DHT22;13877;18.896;-99.222;2022-11-11T04:32:16;20.20;54.20
12413;DHT22;13877;18.896;-99.222;2022-11-11T04:35:20;20.20;54.60
12413;DHT22;13877;18.896;-99.222;2022-11-11T04:38:05;20.20;54.00
12413;DHT22;13877;18.896;-99.222;2022-11-11T04:41:09;20.20;54.10
12413;DHT22;13877;18.896;-99.222;2022-11-11T04:43:57;20.20;54.30
12413;DHT22;13877;18.896;-99.222;2022-11-11T04:47:01;20.20;54.90
12413;DHT22;13877;18.896;-99.222;2022-11-11T04:49:46;20.00;55.10
12413;DHT22;13877;18.896;-99.222;2022-11-11T04:52:32;19.90;55.50
12413;DHT22;13877;18.896;-99.222;2022-11-11T04:55:17;19.90;56.70
12413;DHT22;13877;18.896;-99.222;2022-11-11T04:58:24;20.00;56.60
12413;DHT22;13877;18.896;-99.222;2022-11-11T05:01:09;20.00;57.00
12413;DHT22;13877;18.896;-99.222;2022-11-11T05:04:14;19.90;56.40
12413;DHT22;13877;18.896;-99.222;2022-11-11T05:06:59;20.00;56.50
12413;DHT22;13877;18.896;-99.222;2022-11-11T05:10:03;20.00;56.20
12413;DHT22;13877;18.896;-99.222;2022-11-11T05:12:49;20.20;57.60
12413;DHT22;13877;18.896;-99.222;2022-11-11T05:15:34;20.10;56.60
12413;DHT22;13877;18.896;-99.222;2022-11-11T05:18:38;20.10;56.70
12413;DHT22;13877;18.896;-99.222;2022-11-11T05:21:41;20.00;56.50
12413;DHT22;13877;18.896;-99.222;2022-11-11T05:24:27;20.00;56.90
12413;DHT22;13877;18.896;-99.222;2022-11-11T05:27:31;20.00;56.90
12413;DHT22;13877;18.896;-99.222;2022-11-11T05:30:17;19.90;57.10
12413;DHT22;13877;18.896;-99.222;2022-11-11T05:33:02;19.90;56.50
12413;DHT22;13877;18.896;-99.222;2022-11-11T05:35:47;19.90;55.60
12413;DHT22;13877;18.896;-99.222;2022-11-11T05:38:32;19.90;55.20
12413;DHT22;13877;18.896;-99.222;2022-11-11T05:41:19;19.90;54.50
12413;DHT22;13877;18.896;-99.222;2022-11-11T05:44:04;19.90;54.80
12413;DHT22;13877;18.896;-99.222;2022-11-11T05:46:49;19.80;54.30
12413;DHT22;13877;18.896;-99.222;2022-11-11T05:49:35;19.90;54.10
12413;DHT22;13877;18.896;-99.222;2022-11-11T05:52:20;20.00;53.80
12413;DHT22;13877;18.896;-99.222;2022-11-11T05:55:05;20.00;53.70
12413;DHT22;13877;18.896;-99.222;2022-11-11T05:57:50;20.10;53.40
12413;DHT22;13877;18.896;-99.222;2022-11-11T06:00:36;19.80;53.10
12413;DHT22;13877;18.896;-99.222;2022-11-11T06:03:22;19.70;54.20
12413;DHT22;13877;18.896;-99.222;2022-11-11T06:06:09;19.70;52.60
12413;DHT22;13877;18.896;-99.222;2022-11-11T06:08:54;19.60;53.00
12413;DHT22;13877;18.896;-99.222;2022-11-11T06:11:40;19.60;54.10
12413;DHT22;13877;18.896;-99.222;2022-11-11T06:14:25;19.50;54.90
12413;DHT22;13877;18.896;-99.222;2022-11-11T06:17:11;19.50;56.30
12413;DHT22;13877;18.896;-99.222;2022-11-11T06:19:56;19.30;56.60
12413;DHT22;13877;18.896;-99.222;2022-11-11T06:22:42;19.10;57.10
12413;DHT22;13877;18.896;-99.222;2022-11-11T06:25:43;18.90;57.30
12413;DHT22;13877;18.896;-99.222;2022-11-11T06:31:37;18.80;57.20
12413;DHT22;13877;18.896;-99.222;2022-11-11T06:34:22;18.70;56.90
12413;DHT22;13877;18.896;-99.222;2022-11-11T06:37:07;18.60;56.50
12413;DHT22;13877;18.896;-99.222;2022-11-11T06:39:52;18.60;55.00
12413;DHT22;13877;18.896;-99.222;2022-11-11T06:42:38;18.80;55.00
12413;DHT22;13877;18.896;-99.222;2022-11-11T06:45:24;18.80;55.10
12413;DHT22;13877;18.896;-99.222;2022-11-11T06:48:09;18.80;55.60
12413;DHT22;13877;18.896;-99.222;2022-11-11T06:50:59;18.70;55.50
12413;DHT22;13877;18.896;-99.222;2022-11-11T06:53:46;18.80;54.70
12413;DHT22;13877;18.896;-99.222;2022-11-11T06:56:31;18.90;55.30
12413;DHT22;13877;18.896;-99.222;2022-11-11T06:59:16;18.80;54.90
12413;DHT22;13877;18.896;-99.222;2022-11-11T07:02:01;18.80;55.10
12413;DHT22;13877;18.896;-99.222;2022-11-11T07:04:46;19.10;55.00
12413;DHT22;13877;18.896;-99.222;2022-11-11T07:07:32;19.20;54.90
12413;DHT22;13877;18.896;-99.222;2022-11-11T07:10:17;19.30;56.00
12413;DHT22;13877;18.896;-99.222;2022-11-11T07:13:03;19.40;55.80
12413;DHT22;13877;18.896;-99.222;2022-11-11T07:15:49;19.40;56.10
12413;DHT22;13877;18.896;-99.222;2022-11-11T07:18:34;19.40;56.30
12413;DHT22;13877;18.896;-99.222;2022-11-11T07:21:19;19.40;56.50
12413;DHT22;13877;18.896;-99.222;2022-11-11T07:24:05;19.40;57.10
12413;DHT22;13877;18.896;-99.222;2022-11-11T07:26:50;19.30;57.30
12413;DHT22;13877;18.896;-99.222;2022-11-11T07:29:36;19.30;57.50
12413;DHT22;13877;18.896;-99.222;2022-11-11T07:32:22;19.40;58.10
12413;DHT22;13877;18.896;-99.222;2022-11-11T07:35:08;19.30;58.50
12413;DHT22;13877;18.896;-99.222;2022-11-11T07:37:54;19.30;59.20
12413;DHT22;13877;18.896;-99.222;2022-11-11T07:40:39;19.20;58.70
12413;DHT22;13877;18.896;-99.222;2022-11-11T07:43:24;19.20;59.30
12413;DHT22;13877;18.896;-99.222;2022-11-11T07:46:10;19.00;60.10
12413;DHT22;13877;18.896;-99.222;2022-11-11T07:48:55;18.90;60.40
12413;DHT22;13877;18.896;-99.222;2022-11-11T07:51:40;18.90;61.10
12413;DHT22;13877;18.896;-99.222;2022-11-11T07:54:26;18.80;60.90
12413;DHT22;13877;18.896;-99.222;2022-11-11T07:57:11;18.80;60.90
12413;DHT22;13877;18.896;-99.222;2022-11-11T07:59:57;18.70;60.10
12413;DHT22;13877;18.896;-99.222;2022-11-11T08:02:51;18.60;60.30
12413;DHT22;13877;18.896;-99.222;2022-11-11T08:05:37;18.60;60.90
12413;DHT22;13877;18.896;-99.222;2022-11-11T08:08:22;18.60;60.50
12413;DHT22;13877;18.896;-99.222;2022-11-11T08:11:11;18.60;61.50
12413;DHT22;13877;18.896;-99.222;2022-11-11T08:13:56;18.60;60.30
12413;DHT22;13877;18.896;-99.222;2022-11-11T08:16:44;18.60;60.00
12413;DHT22;13877;18.896;-99.222;2022-11-11T08:19:30;18.60;60.10
12413;DHT22;13877;18.896;-99.222;2022-11-11T08:22:16;18.60;60.30
12413;DHT22;13877;18.896;-99.222;2022-11-11T08:25:01;18.50;60.40
12413;DHT22;13877;18.896;-99.222;2022-11-11T08:27:47;18.50;59.20
12413;DHT22;13877;18.896;-99.222;2022-11-11T08:30:32;18.50;59.70
12413;DHT22;13877;18.896;-99.222;2022-11-11T08:33:17;18.60;59.10
12413;DHT22;13877;18.896;-99.222;2022-11-11T08:36:03;18.50;58.10
12413;DHT22;13877;18.896;-99.222;2022-11-11T08:41:55;18.60;57.40
12413;DHT22;13877;18.896;-99.222;2022-11-11T08:44:41;18.50;56.40
12413;DHT22;13877;18.896;-99.222;2022-11-11T08:47:27;18.50;56.60
12413;DHT22;13877;18.896;-99.222;2022-11-11T08:50:12;18.50;56.20
12413;DHT22;13877;18.896;-99.222;2022-11-11T08:52:58;18.50;55.00
12413;DHT22;13877;18.896;-99.222;2022-11-11T08:55:43;18.50;54.60
12413;DHT22;13877;18.896;-99.222;2022-11-11T08:58:29;18.50;54.20
12413;DHT22;13877;18.896;-99.222;2022-11-11T09:01:15;18.50;54.90
12413;DHT22;13877;18.896;-99.222;2022-11-11T09:04:00;18.40;54.70
12413;DHT22;13877;18.896;-99.222;2022-11-11T09:06:46;18.40;54.30
12413;DHT22;13877;18.896;-99.222;2022-11-11T09:09:31;18.10;56.30
12413;DHT22;13877;18.896;-99.222;2022-11-11T09:12:17;17.90;56.40
12413;DHT22;13877;18.896;-99.222;2022-11-11T09:15:03;17.90;55.30
12413;DHT22;13877;18.896;-99.222;2022-11-11T09:17:48;17.80;56.50
12413;DHT22;13877;18.896;-99.222;2022-11-11T09:20:33;17.80;57.10
12413;DHT22;13877;18.896;-99.222;2022-11-11T09:23:19;17.70;57.00
12413;DHT22;13877;18.896;-99.222;2022-11-11T09:26:04;17.70;57.40
12413;DHT22;13877;18.896;-99.222;2022-11-11T09:28:49;17.70;56.90
12413;DHT22;13877;18.896;-99.222;2022-11-11T09:31:35;17.80;56.10
12413;DHT22;13877;18.896;-99.222;2022-11-11T09:34:20;18.00;56.10
12413;DHT22;13877;18.896;-99.222;2022-11-11T09:37:05;18.20;55.60
12413;DHT22;13877;18.896;-99.222;2022-11-11T09:39:51;18.20;56.20
12413;DHT22;13877;18.896;-99.222;2022-11-11T09:42:43;18.10;56.60
12413;DHT22;13877;18.896;-99.222;2022-11-11T09:51:54;18.00;57.80
12413;DHT22;13877;18.896;-99.222;2022-11-11T09:54:57;17.90;58.30
12413;DHT22;13877;18.896;-99.222;2022-11-11T09:57:57;17.90;58.10
12413;DHT22;13877;18.896;-99.222;2022-11-11T10:00:47;17.90;57.80
12413;DHT22;13877;18.896;-99.222;2022-11-11T10:03:41;17.90;57.20
12413;DHT22;13877;18.896;-99.222;2022-11-11T10:06:31;17.90;56.80
12413;DHT22;13877;18.896;-99.222;2022-11-11T10:12:16;18.10;56.60
12413;DHT22;13877;18.896;-99.222;2022-11-11T10:15:04;18.00;56.70
12413;DHT22;13877;18.896;-99.222;2022-11-11T10:18:16;18.00;57.30
12413;DHT22;13877;18.896;-99.222;2022-11-11T10:21:07;17.90;55.70
12413;DHT22;13877;18.896;-99.222;2022-11-11T10:23:57;18.10;55.50
12413;DHT22;13877;18.896;-99.222;2022-11-11T10:26:45;18.10;55.20
12413;DHT22;13877;18.896;-99.222;2022-11-11T10:29:42;17.90;56.10
12413;DHT22;13877;18.896;-99.222;2022-11-11T10:32:32;17.90;55.90
12413;DHT22;13877;18.896;-99.222;2022-11-11T10:35:25;17.90;55.20
12413;DHT22;13877;18.896;-99.222;2022-11-11T10:38:46;17.80;55.70
12413;DHT22;13877;18.896;-99.222;2022-11-11T10:41:48;17.80;55.20
12413;DHT22;13877;18.896;-99.222;2022-11-11T10:44:34;17.60;55.50
12413;DHT22;13877;18.896;-99.222;2022-11-11T10:50:43;17.80;56.20
12413;DHT22;13877;18.896;-99.222;2022-11-11T10:59:43;17.60;56.30
12413;DHT22;13877;18.896;-99.222;2022-11-11T11:02:54;17.50;56.60
12413;DHT22;13877;18.896;-99.222;2022-11-11T11:09:42;17.40;57.20
12413;DHT22;13877;18.896;-99.222;2022-11-11T11:12:12;17.40;57.70
12413;DHT22;13877;18.896;-99.222;2022-11-11T11:15:10;17.40;57.60
12413;DHT22;13877;18.896;-99.222;2022-11-11T11:20:58;17.30;57.90
12413;DHT22;13877;18.896;-99.222;2022-11-11T11:23:45;17.30;57.60
12413;DHT22;13877;18.896;-99.222;2022-11-11T11:26:48;17.30;57.70
12413;DHT22;13877;18.896;-99.222;2022-11-11T11:29:40;17.30;58.10
12413;DHT22;13877;18.896;-99.222;2022-11-11T11:32:30;17.30;58.00
12413;DHT22;13877;18.896;-99.222;2022-11-11T11:38:40;17.30;58.00
12413;DHT22;13877;18.896;-99.222;2022-11-11T11:41:43;17.30;58.10
12413;DHT22;13877;18.896;-99.222;2022-11-11T11:44:31;17.30;58.50
12413;DHT22;13877;18.896;-99.222;2022-11-11T11:50:46;17.30;57.30
12413;DHT22;13877;18.896;-99.222;2022-11-11T11:53:47;17.20;57.50
12413;DHT22;13877;18.896;-99.222;2022-11-11T11:56:44;17.30;57.40
12413;DHT22;13877;18.896;-99.222;2022-11-11T11:59:50;17.30;57.70
12413;DHT22;13877;18.896;-99.222;2022-11-11T12:05:49;17.20;58.10
12413;DHT22;13877;18.896;-99.222;2022-11-11T12:21:14;17.20;57.00
12413;DHT22;13877;18.896;-99.222;2022-11-11T12:24:10;17.10;57.20
12413;DHT22;13877;18.896;-99.222;2022-11-11T12:27:47;17.10;57.60
12413;DHT22;13877;18.896;-99.222;2022-11-11T12:30:17;17.10;57.70
12413;DHT22;13877;18.896;-99.222;2022-11-11T12:37:24;17.00;58.10
12413;DHT22;13877;18.896;-99.222;2022-11-11T12:40:49;16.90;58.60
12413;DHT22;13877;18.896;-99.222;2022-11-11T12:44:15;16.90;59.00
12413;DHT22;13877;18.896;-99.222;2022-11-11T12:47:11;16.80;59.20
12413;DHT22;13877;18.896;-99.222;2022-11-11T12:50:38;16.80;59.70
12413;DHT22;13877;18.896;-99.222;2022-11-11T12:54:16;16.90;59.30
12413;DHT22;13877;18.896;-99.222;2022-11-11T13:00:18;17.10;58.70
12413;DHT22;13877;18.896;-99.222;2022-11-11T13:12:06;17.30;58.00
12413;DHT22;13877;18.896;-99.222;2022-11-11T13:17:59;17.40;58.00
12413;DHT22;13877;18.896;-99.222;2022-11-11T13:20:55;17.40;57.10
12413;DHT22;13877;18.896;-99.222;2022-11-11T13:23:41;17.60;57.80
12413;DHT22;13877;18.896;-99.222;2022-11-11T13:26:48;17.60;57.80
12413;DHT22;13877;18.896;-99.222;2022-11-11T13:41:27;18.60;57.70
12413;DHT22;13877;18.896;-99.222;2022-11-11T13:44:32;18.80;58.20
12413;DHT22;13877;18.896;-99.222;2022-11-11T13:47:24;18.90;57.60
12413;DHT22;13877;18.896;-99.222;2022-11-11T13:53:15;19.00;59.20
12413;DHT22;13877;18.896;-99.222;2022-11-11T13:56:08;19.20;59.50
12413;DHT22;13877;18.896;-99.222;2022-11-11T13:58:56;19.40;59.90
12413;DHT22;13877;18.896;-99.222;2022-11-11T14:01:42;19.60;60.20
12413;DHT22;13877;18.896;-99.222;2022-11-11T14:04:27;19.90;61.20
12413;DHT22;13877;18.896;-99.222;2022-11-11T14:16:09;20.60;61.40
12413;DHT22;13877;18.896;-99.222;2022-11-11T14:18:54;20.80;61.40
12413;DHT22;13877;18.896;-99.222;2022-11-11T14:21:55;21.00;61.50
12413;DHT22;13877;18.896;-99.222;2022-11-11T14:24:43;21.10;62.70
12413;DHT22;13877;18.896;-99.222;2022-11-11T14:27:31;21.10;64.40
12413;DHT22;13877;18.896;-99.222;2022-11-11T14:30:48;21.20;64.40
12413;DHT22;13877;18.896;-99.222;2022-11-11T14:37:08;21.20;66.70
12413;DHT22;13877;18.896;-99.222;2022-11-11T14:39:59;21.20;66.80
12413;DHT22;13877;18.896;-99.222;2022-11-11T14:42:46;21.30;69.30
12413;DHT22;13877;18.896;-99.222;2022-11-11T14:51:49;21.10;70.70
12413;DHT22;13877;18.896;-99.222;2022-11-11T14:54:35;21.10;70.80
12413;DHT22;13877;18.896;-99.222;2022-11-11T15:03:50;21.10;71.40
12413;DHT22;13877;18.896;-99.222;2022-11-11T15:06:48;21.10;72.10
12413;DHT22;13877;18.896;-99.222;2022-11-11T15:10:25;21.40;73.80
12413;DHT22;13877;18.896;-99.222;2022-11-11T15:13:43;21.70;74.00
12413;DHT22;13877;18.896;-99.222;2022-11-11T15:16:08;21.60;71.00
12413;DHT22;13877;18.896;-99.222;2022-11-11T15:25:41;22.00;71.30
12413;DHT22;13877;18.896;-99.222;2022-11-11T15:38:17;22.30;72.60
12413;DHT22;13877;18.896;-99.222;2022-11-11T15:41:03;22.30;72.80
12413;DHT22;13877;18.896;-99.222;2022-11-11T15:43:48;22.30;72.90
12413;DHT22;13877;18.896;-99.222;2022-11-11T15:46:39;22.80;72.40
12413;DHT22;13877;18.896;-99.222;2022-11-11T15:49:45;24.00;69.10
12413;DHT22;13877;18.896;-99.222;2022-11-11T15:52:33;24.60;68.00
12413;DHT22;13877;18.896;-99.222;2022-11-11T15:55:24;24.60;67.60
12413;DHT22;13877;18.896;-99.222;2022-11-11T15:58:27;24.70;66.70
12413;DHT22;13877;18.896;-99.222;2022-11-11T16:01:13;24.50;67.30
12413;DHT22;13877;18.896;-99.222;2022-11-11T16:03:59;24.30;68.50
12413;DHT22;13877;18.896;-99.222;2022-11-11T16:06:46;24.70;68.00
12413;DHT22;13877;18.896;-99.222;2022-11-11T16:09:31;25.20;67.60
12413;DHT22;13877;18.896;-99.222;2022-11-11T16:12:27;25.30;67.50
12413;DHT22;13877;18.896;-99.222;2022-11-11T16:18:23;26.00;65.50
12413;DHT22;13877;18.896;-99.222;2022-11-11T16:21:42;25.70;65.60
12413;DHT22;13877;18.896;-99.222;2022-11-11T16:24:31;25.20;69.20
12413;DHT22;13877;18.896;-99.222;2022-11-11T16:27:19;25.40;67.40
12413;DHT22;13877;18.896;-99.222;2022-11-11T16:36:10;26.30;68.70
12413;DHT22;13877;18.896;-99.222;2022-11-11T16:39:17;26.40;64.40
12413;DHT22;13877;18.896;-99.222;2022-11-11T16:42:05;25.90;66.00
12413;DHT22;13877;18.896;-99.222;2022-11-11T16:47:42;26.70;63.40
12413;DHT22;13877;18.896;-99.222;2022-11-11T16:50:28;26.50;64.50
12413;DHT22;13877;18.896;-99.222;2022-11-11T16:53:25;26.50;65.20
12413;DHT22;13877;18.896;-99.222;2022-11-11T16:56:22;26.50;64.50
12413;DHT22;13877;18.896;-99.222;2022-11-11T16:59:36;26.70;62.70
12413;DHT22;13877;18.896;-99.222;2022-11-11T17:02:20;26.40;65.30
12413;DHT22;13877;18.896;-99.222;2022-11-11T17:05:07;27.20;63.60
12413;DHT22;13877;18.896;-99.222;2022-11-11T17:07:52;27.50;62.90
12413;DHT22;13877;18.896;-99.222;2022-11-11T17:10:38;27.30;62.40
12413;DHT22;13877;18.896;-99.222;2022-11-11T17:13:25;27.10;62.80
12413;DHT22;13877;18.896;-99.222;2022-11-11T17:16:12;27.00;63.40
12413;DHT22;13877;18.896;-99.222;2022-11-11T17:19:02;27.40;64.60
12413;DHT22;13877;18.896;-99.222;2022-11-11T17:21:48;27.60;62.00
12413;DHT22;13877;18.896;-99.222;2022-11-11T17:24:34;27.30;63.10
12413;DHT22;13877;18.896;-99.222;2022-11-11T17:27:20;27.60;62.70
12413;DHT22;13877;18.896;-99.222;2022-11-11T17:30:05;26.90;63.90
12413;DHT22;13877;18.896;-99.222;2022-11-11T17:32:51;27.70;61.80
12413;DHT22;13877;18.896;-99.222;2022-11-11T17:35:36;28.00;62.00
12413;DHT22;13877;18.896;-99.222;2022-11-11T17:38:21;28.70;59.30
12413;DHT22;13877;18.896;-99.222;2022-11-11T17:41:06;28.20;63.90
12413;DHT22;13877;18.896;-99.222;2022-11-11T17:43:54;28.50;61.20
12413;DHT22;13877;18.896;-99.222;2022-11-11T17:46:39;29.20;58.10
12413;DHT22;13877;18.896;-99.222;2022-11-11T17:49:25;29.50;58.70
12413;DHT22;13877;18.896;-99.222;2022-11-11T17:52:10;29.80;58.00
12413;DHT22;13877;18.896;-99.222;2022-11-11T17:54:56;30.20;56.60
12413;DHT22;13877;18.896;-99.222;2022-11-11T17:57:41;30.20;58.50
12413;DHT22;13877;18.896;-99.222;2022-11-11T18:00:27;29.70;57.50
12413;DHT22;13877;18.896;-99.222;2022-11-11T18:03:12;29.80;56.90
12413;DHT22;13877;18.896;-99.222;2022-11-11T18:05:58;29.30;57.40
12413;DHT22;13877;18.896;-99.222;2022-11-11T18:08:43;29.20;57.70
12413;DHT22;13877;18.896;-99.222;2022-11-11T18:11:29;29.90;56.70
12413;DHT22;13877;18.896;-99.222;2022-11-11T18:14:14;29.60;59.60
12413;DHT22;13877;18.896;-99.222;2022-11-11T18:17:01;29.40;58.90
12413;DHT22;13877;18.896;-99.222;2022-11-11T18:19:46;29.00;59.80
12413;DHT22;13877;18.896;-99.222;2022-11-11T18:22:32;29.30;58.40
12413;DHT22;13877;18.896;-99.222;2022-11-11T18:25:17;29.60;56.40
12413;DHT22;13877;18.896;-99.222;2022-11-11T18:28:02;29.50;56.70
12413;DHT22;13877;18.896;-99.222;2022-11-11T18:30:48;29.00;60.10
12413;DHT22;13877;18.896;-99.222;2022-11-11T18:33:34;29.70;57.10
12413;DHT22;13877;18.896;-99.222;2022-11-11T18:36:20;29.90;58.90
12413;DHT22;13877;18.896;-99.222;2022-11-11T18:39:05;30.00;56.00
12413;DHT22;13877;18.896;-99.222;2022-11-11T18:41:50;29.90;54.30
12413;DHT22;13877;18.896;-99.222;2022-11-11T18:44:35;28.60;55.80
12413;DHT22;13877;18.896;-99.222;2022-11-11T18:47:21;29.10;55.90
12413;DHT22;13877;18.896;-99.222;2022-11-11T18:50:07;29.30;57.30
12413;DHT22;13877;18.896;-99.222;2022-11-11T18:52:52;29.80;56.90
12413;DHT22;13877;18.896;-99.222;2022-11-11T18:55:37;30.40;56.80
12413;DHT22;13877;18.896;-99.222;2022-11-11T18:58:23;30.40;55.60
12413;DHT22;13877;18.896;-99.222;2022-11-11T19:01:14;30.80;55.50
12413;DHT22;13877;18.896;-99.222;2022-11-11T19:04:09;30.20;55.00
12413;DHT22;13877;18.896;-99.222;2022-11-11T19:06:55;29.90;56.40
12413;DHT22;13877;18.896;-99.222;2022-11-11T19:09:41;29.50;56.70
12413;DHT22;13877;18.896;-99.222;2022-11-11T19:12:27;30.30;56.90
12413;DHT22;13877;18.896;-99.222;2022-11-11T19:15:12;30.40;54.80
12413;DHT22;13877;18.896;-99.222;2022-11-11T19:17:58;30.60;54.20
12413;DHT22;13877;18.896;-99.222;2022-11-11T19:20:44;29.90;55.20
12413;DHT22;13877;18.896;-99.222;2022-11-11T19:23:30;29.40;56.80
12413;DHT22;13877;18.896;-99.222;2022-11-11T19:26:15;28.20;58.90
12413;DHT22;13877;18.896;-99.222;2022-11-11T19:29:02;29.20;57.90
12413;DHT22;13877;18.896;-99.222;2022-11-11T19:31:49;30.00;56.10
12413;DHT22;13877;18.896;-99.222;2022-11-11T19:34:35;30.40;56.10
12413;DHT22;13877;18.896;-99.222;2022-11-11T19:37:21;30.40;55.00
12413;DHT22;13877;18.896;-99.222;2022-11-11T19:40:09;29.30;57.20
12413;DHT22;13877;18.896;-99.222;2022-11-11T19:42:54;29.80;55.70
12413;DHT22;13877;18.896;-99.222;2022-11-11T19:45:39;30.40;56.60